sensor_id;sensor_type;location;lat;lon;timestamp;pressure;altitude;pressure_sealevel;temperature;humidity
32251;BME280;41295;48.518;9.206;2022-12-29T00:01:20;96799.91;;;8.39;62.53
32251;BME280;41295;48.518;9.206;2022-12-29T00:03:23;96806.56;;;8.47;62.20
32251;BME280;41295;48.518;9.206;2022-12-29T00:05:25;96803.66;;;8.54;61.72
32251;BME280;41295;48.518;9.206;2022-12-29T00:07:28;96805.00;;;8.66;61.71
32251;BME280;41295;48.518;9.206;2022-12-29T00:09:31;96801.69;;;8.63;61.40
32251;BME280;41295;48.518;9.206;2022-12-29T00:11:33;96801.97;;;8.77;61.08
32251;BME280;41295;48.518;9.206;2022-12-29T00:13:36;96807.31;;;8.74;61.25
32251;BME280;41295;48.518;9.206;2022-12-29T00:15:58;96811.56;;;8.77;60.95
32251;BME280;41295;48.518;9.206;2022-12-29T00:18:01;96815.56;;;8.86;60.45
32251;BME280;41295;48.518;9.206;2022-12-29T00:20:04;96804.53;;;8.79;60.62
32251;BME280;41295;48.518;9.206;2022-12-29T00:22:21;96803.09;;;8.72;61.30
32251;BME280;41295;48.518;9.206;2022-12-29T00:24:41;96805.09;;;8.63;61.35
32251;BME280;41295;48.518;9.206;2022-12-29T00:27:11;96809.56;;;8.84;61.08
32251;BME280;41295;48.518;9.206;2022-12-29T00:29:31;96798.38;;;8.82;61.11
32251;BME280;41295;48.518;9.206;2022-12-29T00:31:53;96792.97;;;8.86;60.94
32251;BME280;41295;48.518;9.206;2022-12-29T00:34:13;96780.91;;;8.85;61.11
32251;BME280;41295;48.518;9.206;2022-12-29T00:36:36;96781.38;;;8.95;60.63
32251;BME280;41295;48.518;9.206;2022-12-29T00:38:42;96768.34;;;8.97;60.61
32251;BME280;41295;48.518;9.206;2022-12-29T00:41:04;96775.28;;;8.96;60.75
32251;BME280;41295;48.518;9.206;2022-12-29T00:43:24;96771.81;;;8.96;60.75
32251;BME280;41295;48.518;9.206;2022-12-29T00:45:44;96771.41;;;8.84;60.96
32251;BME280;41295;48.518;9.206;2022-12-29T00:47:48;96772.38;;;8.82;60.91
32251;BME280;41295;48.518;9.206;2022-12-29T00:49:51;96764.88;;;8.96;60.68
32251;BME280;41295;48.518;9.206;2022-12-29T00:51:53;96761.44;;;8.96;60.41
32251;BME280;41295;48.518;9.206;2022-12-29T00:53:56;96761.06;;;9.05;60.20
32251;BME280;41295;48.518;9.206;2022-12-29T00:55:59;96770.22;;;8.93;60.59
32251;BME280;41295;48.518;9.206;2022-12-29T00:58:02;96770.16;;;8.95;60.33
32251;BME280;41295;48.518;9.206;2022-12-29T01:00:05;96770.09;;;8.96;61.20
32251;BME280;41295;48.518;9.206;2022-12-29T01:02:09;96763.22;;;8.94;60.72
32251;BME280;41295;48.518;9.206;2022-12-29T01:04:13;96758.22;;;8.89;61.16
32251;BME280;41295;48.518;9.206;2022-12-29T01:06:18;96758.66;;;9.00;60.99
32251;BME280;41295;48.518;9.206;2022-12-29T01:08:21;96760.28;;;9.03;60.82
32251;BME280;41295;48.518;9.206;2022-12-29T01:10:23;96753.19;;;9.07;60.55
32251;BME280;41295;48.518;9.206;2022-12-29T01:12:25;96761.28;;;8.99;60.81
32251;BME280;41295;48.518;9.206;2022-12-29T01:14:55;96751.47;;;9.07;60.58
32251;BME280;41295;48.518;9.206;2022-12-29T01:16:58;96768.03;;;9.05;60.91
32251;BME280;41295;48.518;9.206;2022-12-29T01:19:01;96758.41;;;9.07;60.34
32251;BME280;41295;48.518;9.206;2022-12-29T01:21:05;96763.47;;;9.10;60.13
32251;BME280;41295;48.518;9.206;2022-12-29T01:23:07;96761.25;;;9.00;61.06
32251;BME280;41295;48.518;9.206;2022-12-29T01:25:10;96760.22;;;9.05;61.05
32251;BME280;41295;48.518;9.206;2022-12-29T01:27:13;96769.66;;;9.07;60.52
32251;BME280;41295;48.518;9.206;2022-12-29T01:29:16;96767.06;;;9.07;60.73
32251;BME280;41295;48.518;9.206;2022-12-29T01:31:20;96767.41;;;8.98;60.91
32251;BME280;41295;48.518;9.206;2022-12-29T01:33:23;96775.16;;;8.99;61.25
32251;BME280;41295;48.518;9.206;2022-12-29T01:35:25;96779.81;;;9.13;60.45
32251;BME280;41295;48.518;9.206;2022-12-29T01:37:28;96778.91;;;9.14;60.61
32251;BME280;41295;48.518;9.206;2022-12-29T01:39:31;96780.41;;;8.98;60.91
32251;BME280;41295;48.518;9.206;2022-12-29T01:41:33;96784.03;;;8.94;61.17
32251;BME280;41295;48.518;9.206;2022-12-29T01:43:41;96783.16;;;8.95;61.35
32251;BME280;41295;48.518;9.206;2022-12-29T01:45:48;96788.56;;;8.88;61.86
32251;BME280;41295;48.518;9.206;2022-12-29T01:47:57;96784.34;;;8.86;61.84
32251;BME280;41295;48.518;9.206;2022-12-29T01:50:05;96794.91;;;8.81;61.85
32251;BME280;41295;48.518;9.206;2022-12-29T01:52:08;96798.31;;;8.83;61.87
32251;BME280;41295;48.518;9.206;2022-12-29T01:54:18;96790.50;;;8.83;62.15
32251;BME280;41295;48.518;9.206;2022-12-29T01:56:23;96788.22;;;8.75;62.39
32251;BME280;41295;48.518;9.206;2022-12-29T01:58:29;96781.19;;;8.77;62.00
32251;BME280;41295;48.518;9.206;2022-12-29T02:00:33;96783.84;;;8.76;62.71
32251;BME280;41295;48.518;9.206;2022-12-29T02:02:36;96785.66;;;8.74;62.28
32251;BME280;41295;48.518;9.206;2022-12-29T02:04:41;96782.22;;;8.73;62.59
32251;BME280;41295;48.518;9.206;2022-12-29T02:06:50;96789.16;;;8.73;62.96
32251;BME280;41295;48.518;9.206;2022-12-29T02:08:55;96779.72;;;8.70;63.12
32251;BME280;41295;48.518;9.206;2022-12-29T02:11:00;96782.31;;;8.70;63.00
32251;BME280;41295;48.518;9.206;2022-12-29T02:13:03;96784.03;;;8.71;63.19
32251;BME280;41295;48.518;9.206;2022-12-29T02:15:07;96777.91;;;8.72;63.08
32251;BME280;41295;48.518;9.206;2022-12-29T02:17:16;96774.50;;;8.72;63.23
32251;BME280;41295;48.518;9.206;2022-12-29T02:19:47;96768.50;;;8.70;63.65
32251;BME280;41295;48.518;9.206;2022-12-29T02:22:01;96772.56;;;8.77;62.81
32251;BME280;41295;48.518;9.206;2022-12-29T02:24:25;96761.91;;;8.83;63.17
32251;BME280;41295;48.518;9.206;2022-12-29T02:26:49;96772.75;;;8.95;61.99
32251;BME280;41295;48.518;9.206;2022-12-29T02:29:21;96768.63;;;9.11;61.32
32251;BME280;41295;48.518;9.206;2022-12-29T02:31:38;96766.63;;;9.18;60.66
32251;BME280;41295;48.518;9.206;2022-12-29T02:33:54;96767.69;;;9.35;59.57
32251;BME280;41295;48.518;9.206;2022-12-29T02:36:06;96763.94;;;9.42;59.47
32251;BME280;41295;48.518;9.206;2022-12-29T02:38:17;96759.59;;;9.63;58.22
32251;BME280;41295;48.518;9.206;2022-12-29T02:40:25;96757.97;;;9.61;58.67
32251;BME280;41295;48.518;9.206;2022-12-29T02:42:35;96759.91;;;9.77;57.98
32251;BME280;41295;48.518;9.206;2022-12-29T02:44:46;96762.53;;;9.77;58.06
32251;BME280;41295;48.518;9.206;2022-12-29T02:46:58;96759.63;;;9.83;57.95
32251;BME280;41295;48.518;9.206;2022-12-29T02:49:07;96758.75;;;9.84;57.60
32251;BME280;41295;48.518;9.206;2022-12-29T02:51:18;96752.19;;;9.75;58.28
32251;BME280;41295;48.518;9.206;2022-12-29T02:53:23;96751.47;;;9.71;58.29
32251;BME280;41295;48.518;9.206;2022-12-29T02:55:47;96752.31;;;9.72;58.06
32251;BME280;41295;48.518;9.206;2022-12-29T02:58:09;96756.41;;;9.98;56.48
32251;BME280;41295;48.518;9.206;2022-12-29T03:00:16;96748.38;;;10.03;56.59
32251;BME280;41295;48.518;9.206;2022-12-29T03:02:31;96738.28;;;9.95;57.07
32251;BME280;41295;48.518;9.206;2022-12-29T03:04:43;96746.16;;;9.94;56.75
32251;BME280;41295;48.518;9.206;2022-12-29T03:06:56;96756.66;;;9.92;56.93
32251;BME280;41295;48.518;9.206;2022-12-29T03:09:11;96764.59;;;9.89;57.30
32251;BME280;41295;48.518;9.206;2022-12-29T03:11:19;96758.09;;;10.19;55.62
32251;BME280;41295;48.518;9.206;2022-12-29T03:13:52;96767.63;;;10.20;55.24
32251;BME280;41295;48.518;9.206;2022-12-29T03:16:21;96758.97;;;10.19;55.25
32251;BME280;41295;48.518;9.206;2022-12-29T03:18:33;96771.78;;;10.24;55.39
32251;BME280;41295;48.518;9.206;2022-12-29T03:20:43;96773.41;;;10.27;55.38
32251;BME280;41295;48.518;9.206;2022-12-29T03:22:49;96763.53;;;10.14;55.46
32251;BME280;41295;48.518;9.206;2022-12-29T03:24:56;96765.03;;;10.20;55.49
32251;BME280;41295;48.518;9.206;2022-12-29T03:27:03;96763.59;;;10.13;55.59
32251;BME280;41295;48.518;9.206;2022-12-29T03:29:08;96764.72;;;10.07;55.97
32251;BME280;41295;48.518;9.206;2022-12-29T03:31:12;96763.16;;;10.03;56.08
32251;BME280;41295;48.518;9.206;2022-12-29T03:33:21;96748.59;;;10.18;55.32
32251;BME280;41295;48.518;9.206;2022-12-29T03:35:28;96757.75;;;10.07;55.89
32251;BME280;41295;48.518;9.206;2022-12-29T03:37:37;96751.94;;;10.21;55.35
32251;BME280;41295;48.518;9.206;2022-12-29T03:39:41;96754.84;;;10.14;55.57
32251;BME280;41295;48.518;9.206;2022-12-29T03:41:45;96752.72;;;10.03;55.80
32251;BME280;41295;48.518;9.206;2022-12-29T03:43:48;96756.81;;;10.08;55.79
32251;BME280;41295;48.518;9.206;2022-12-29T03:45:50;96748.69;;;9.95;56.37
32251;BME280;41295;48.518;9.206;2022-12-29T03:47:53;96752.09;;;9.97;56.38
32251;BME280;41295;48.518;9.206;2022-12-29T03:49:56;96745.97;;;9.98;56.12
32251;BME280;41295;48.518;9.206;2022-12-29T03:52:00;96740.00;;;9.96;56.28
32251;BME280;41295;48.518;9.206;2022-12-29T03:54:02;96739.44;;;9.88;56.34
32251;BME280;41295;48.518;9.206;2022-12-29T03:56:05;96730.09;;;9.84;56.75
32251;BME280;41295;48.518;9.206;2022-12-29T03:58:08;96729.97;;;9.87;56.76
32251;BME280;41295;48.518;9.206;2022-12-29T04:00:11;96714.22;;;10.09;55.82
32251;BME280;41295;48.518;9.206;2022-12-29T04:02:14;96712.44;;;9.91;56.24
32251;BME280;41295;48.518;9.206;2022-12-29T04:04:18;96707.16;;;9.92;56.50
32251;BME280;41295;48.518;9.206;2022-12-29T04:06:21;96702.03;;;9.91;56.40
32251;BME280;41295;48.518;9.206;2022-12-29T04:08:26;96692.53;;;9.90;56.44
32251;BME280;41295;48.518;9.206;2022-12-29T04:10:28;96695.78;;;10.14;56.03
32251;BME280;41295;48.518;9.206;2022-12-29T04:12:31;96702.81;;;10.12;56.05
32251;BME280;41295;48.518;9.206;2022-12-29T04:14:34;96706.84;;;10.00;56.23
32251;BME280;41295;48.518;9.206;2022-12-29T04:16:37;96712.44;;;9.91;56.52
32251;BME280;41295;48.518;9.206;2022-12-29T04:18:40;96712.59;;;9.88;56.91
32251;BME280;41295;48.518;9.206;2022-12-29T04:20:44;96717.09;;;9.84;57.30
32251;BME280;41295;48.518;9.206;2022-12-29T04:23:05;96713.75;;;9.80;57.07
32251;BME280;41295;48.518;9.206;2022-12-29T04:25:10;96717.41;;;9.76;57.41
32251;BME280;41295;48.518;9.206;2022-12-29T04:27:12;96720.22;;;9.71;57.63
32251;BME280;41295;48.518;9.206;2022-12-29T04:29:15;96713.44;;;9.67;57.78
32251;BME280;41295;48.518;9.206;2022-12-29T04:31:18;96714.47;;;9.63;58.47
32251;BME280;41295;48.518;9.206;2022-12-29T04:33:21;96725.94;;;9.59;58.71
32251;BME280;41295;48.518;9.206;2022-12-29T04:35:23;96727.06;;;9.53;58.51
32251;BME280;41295;48.518;9.206;2022-12-29T04:37:26;96741.81;;;9.53;58.82
32251;BME280;41295;48.518;9.206;2022-12-29T04:39:29;96739.34;;;9.49;58.61
32251;BME280;41295;48.518;9.206;2022-12-29T04:41:33;96743.19;;;9.41;58.92
32251;BME280;41295;48.518;9.206;2022-12-29T04:43:35;96740.38;;;9.45;58.72
32251;BME280;41295;48.518;9.206;2022-12-29T04:45:38;96741.94;;;9.49;58.30
32251;BME280;41295;48.518;9.206;2022-12-29T04:47:41;96733.94;;;9.54;58.60
32251;BME280;41295;48.518;9.206;2022-12-29T04:49:43;96723.66;;;9.51;58.42
32251;BME280;41295;48.518;9.206;2022-12-29T04:51:46;96714.16;;;9.50;58.72
32251;BME280;41295;48.518;9.206;2022-12-29T04:53:48;96709.03;;;9.48;58.92
32251;BME280;41295;48.518;9.206;2022-12-29T04:55:52;96714.41;;;9.44;59.02
32251;BME280;41295;48.518;9.206;2022-12-29T04:57:56;96704.56;;;9.52;58.71
32251;BME280;41295;48.518;9.206;2022-12-29T04:59:58;96713.38;;;9.48;58.76
32251;BME280;41295;48.518;9.206;2022-12-29T05:02:01;96711.81;;;9.44;59.12
32251;BME280;41295;48.518;9.206;2022-12-29T05:04:04;96714.56;;;9.41;58.87
32251;BME280;41295;48.518;9.206;2022-12-29T05:06:07;96716.38;;;9.38;59.52
32251;BME280;41295;48.518;9.206;2022-12-29T05:08:09;96713.53;;;9.45;59.08
32251;BME280;41295;48.518;9.206;2022-12-29T05:10:12;96714.25;;;9.48;58.82
32251;BME280;41295;48.518;9.206;2022-12-29T05:12:14;96715.91;;;9.49;58.75
32251;BME280;41295;48.518;9.206;2022-12-29T05:14:19;96721.97;;;9.50;58.84
32251;BME280;41295;48.518;9.206;2022-12-29T05:16:22;96720.16;;;9.52;59.26
32251;BME280;41295;48.518;9.206;2022-12-29T05:18:24;96732.25;;;9.53;58.76
32251;BME280;41295;48.518;9.206;2022-12-29T05:20:27;96732.59;;;9.66;58.65
32251;BME280;41295;48.518;9.206;2022-12-29T05:22:30;96732.13;;;9.77;58.47
32251;BME280;41295;48.518;9.206;2022-12-29T05:24:33;96730.81;;;9.67;58.53
32251;BME280;41295;48.518;9.206;2022-12-29T05:26:35;96735.25;;;9.65;58.61
32251;BME280;41295;48.518;9.206;2022-12-29T05:28:38;96724.50;;;9.72;58.67
32251;BME280;41295;48.518;9.206;2022-12-29T05:30:42;96723.00;;;9.67;59.05
32251;BME280;41295;48.518;9.206;2022-12-29T05:32:45;96726.97;;;9.75;58.32
32251;BME280;41295;48.518;9.206;2022-12-29T05:34:47;96731.13;;;9.80;58.31
32251;BME280;41295;48.518;9.206;2022-12-29T05:36:51;96730.53;;;9.94;57.44
32251;BME280;41295;48.518;9.206;2022-12-29T05:38:56;96737.16;;;10.01;57.11
32251;BME280;41295;48.518;9.206;2022-12-29T05:40:59;96736.53;;;9.96;57.65
32251;BME280;41295;48.518;9.206;2022-12-29T05:43:02;96738.28;;;9.95;57.82
32251;BME280;41295;48.518;9.206;2022-12-29T05:45:06;96738.16;;;9.98;57.38
32251;BME280;41295;48.518;9.206;2022-12-29T05:47:10;96734.41;;;10.04;57.82
32251;BME280;41295;48.518;9.206;2022-12-29T05:49:13;96737.16;;;10.01;57.70
32251;BME280;41295;48.518;9.206;2022-12-29T05:51:15;96736.91;;;10.07;57.80
32251;BME280;41295;48.518;9.206;2022-12-29T05:53:18;96722.84;;;10.31;56.89
32251;BME280;41295;48.518;9.206;2022-12-29T05:55:21;96722.41;;;10.21;57.44
32251;BME280;41295;48.518;9.206;2022-12-29T05:57:24;96711.50;;;10.13;57.90
32251;BME280;41295;48.518;9.206;2022-12-29T05:59:26;96707.91;;;10.15;57.72
32251;BME280;41295;48.518;9.206;2022-12-29T06:01:29;96716.78;;;10.30;57.41
32251;BME280;41295;48.518;9.206;2022-12-29T06:03:33;96702.97;;;10.28;57.91
32251;BME280;41295;48.518;9.206;2022-12-29T06:05:36;96702.81;;;10.12;58.01
32251;BME280;41295;48.518;9.206;2022-12-29T06:07:38;96700.31;;;10.30;57.84
32251;BME280;41295;48.518;9.206;2022-12-29T06:09:41;96698.69;;;10.27;57.93
32251;BME280;41295;48.518;9.206;2022-12-29T06:11:44;96690.22;;;10.22;58.09
32251;BME280;41295;48.518;9.206;2022-12-29T06:13:46;96693.13;;;10.35;58.06
32251;BME280;41295;48.518;9.206;2022-12-29T06:15:49;96698.47;;;10.32;57.98
32251;BME280;41295;48.518;9.206;2022-12-29T06:17:52;96688.91;;;10.32;58.19
32251;BME280;41295;48.518;9.206;2022-12-29T06:19:56;96694.75;;;10.38;58.63
32251;BME280;41295;48.518;9.206;2022-12-29T06:21:58;96687.03;;;10.34;58.50
32251;BME280;41295;48.518;9.206;2022-12-29T06:24:01;96686.38;;;10.50;58.28
32251;BME280;41295;48.518;9.206;2022-12-29T06:26:03;96679.88;;;10.40;58.84
32251;BME280;41295;48.518;9.206;2022-12-29T06:28:06;96674.38;;;10.46;58.87
32251;BME280;41295;48.518;9.206;2022-12-29T06:30:10;96674.06;;;10.54;58.92
32251;BME280;41295;48.518;9.206;2022-12-29T06:32:13;96681.56;;;10.41;58.82
32251;BME280;41295;48.518;9.206;2022-12-29T06:34:15;96683.31;;;10.40;59.18
32251;BME280;41295;48.518;9.206;2022-12-29T06:36:19;96674.44;;;10.44;59.02
32251;BME280;41295;48.518;9.206;2022-12-29T06:38:22;96668.63;;;10.58;58.99
32251;BME280;41295;48.518;9.206;2022-12-29T06:40:24;96662.53;;;10.58;58.61
32251;BME280;41295;48.518;9.206;2022-12-29T06:42:27;96663.63;;;10.54;58.88
32251;BME280;41295;48.518;9.206;2022-12-29T06:44:30;96667.09;;;10.72;58.73
32251;BME280;41295;48.518;9.206;2022-12-29T06:46:32;96668.19;;;10.68;58.73
32251;BME280;41295;48.518;9.206;2022-12-29T06:48:35;96675.63;;;10.76;58.36
32251;BME280;41295;48.518;9.206;2022-12-29T06:50:38;96689.06;;;10.86;58.06
32251;BME280;41295;48.518;9.206;2022-12-29T06:52:42;96687.75;;;10.77;58.64
32251;BME280;41295;48.518;9.206;2022-12-29T06:54:44;96681.34;;;10.84;58.43
32251;BME280;41295;48.518;9.206;2022-12-29T06:56:47;96686.75;;;10.79;58.51
32251;BME280;41295;48.518;9.206;2022-12-29T06:58:49;96686.91;;;10.76;58.46
32251;BME280;41295;48.518;9.206;2022-12-29T07:00:52;96689.94;;;10.67;58.84
32251;BME280;41295;48.518;9.206;2022-12-29T07:02:55;96685.34;;;10.72;58.93
32251;BME280;41295;48.518;9.206;2022-12-29T07:04:59;96681.06;;;10.71;58.94
32251;BME280;41295;48.518;9.206;2022-12-29T07:07:02;96688.25;;;10.66;58.99
32251;BME280;41295;48.518;9.206;2022-12-29T07:09:06;96692.97;;;10.77;59.18
32251;BME280;41295;48.518;9.206;2022-12-29T07:11:08;96682.16;;;10.85;58.73
32251;BME280;41295;48.518;9.206;2022-12-29T07:13:11;96688.47;;;10.80;58.95
32251;BME280;41295;48.518;9.206;2022-12-29T07:15:13;96684.91;;;10.81;58.84
32251;BME280;41295;48.518;9.206;2022-12-29T07:17:16;96686.16;;;10.92;58.73
32251;BME280;41295;48.518;9.206;2022-12-29T07:19:19;96686.94;;;10.94;58.15
32251;BME280;41295;48.518;9.206;2022-12-29T07:21:22;96687.75;;;10.77;58.57
32251;BME280;41295;48.518;9.206;2022-12-29T07:23:25;96691.16;;;10.79;59.04
32251;BME280;41295;48.518;9.206;2022-12-29T07:25:29;96678.84;;;10.81;58.83
32251;BME280;41295;48.518;9.206;2022-12-29T07:27:31;96687.78;;;10.94;58.87
32251;BME280;41295;48.518;9.206;2022-12-29T07:29:36;96686.53;;;10.84;58.51
32251;BME280;41295;48.518;9.206;2022-12-29T07:31:39;96681.94;;;10.89;58.18
32251;BME280;41295;48.518;9.206;2022-12-29T07:33:42;96685.19;;;10.94;58.49
32251;BME280;41295;48.518;9.206;2022-12-29T07:35:45;96685.06;;;10.78;58.74
32251;BME280;41295;48.518;9.206;2022-12-29T07:37:47;96682.09;;;10.86;58.98
32251;BME280;41295;48.518;9.206;2022-12-29T07:39:50;96681.03;;;10.90;58.47
32251;BME280;41295;48.518;9.206;2022-12-29T07:41:54;96683.16;;;10.82;58.95
32251;BME280;41295;48.518;9.206;2022-12-29T07:44:05;96685.47;;;10.88;58.74
32251;BME280;41295;48.518;9.206;2022-12-29T07:46:07;96680.88;;;10.93;58.80
32251;BME280;41295;48.518;9.206;2022-12-29T07:48:31;96689.38;;;10.97;58.53
32251;BME280;41295;48.518;9.206;2022-12-29T07:50:35;96691.59;;;10.87;58.75
32251;BME280;41295;48.518;9.206;2022-12-29T07:52:38;96688.56;;;10.97;58.85
32251;BME280;41295;48.518;9.206;2022-12-29T07:54:40;96702.59;;;11.12;57.60
32251;BME280;41295;48.518;9.206;2022-12-29T07:56:43;96696.69;;;11.08;57.56
32251;BME280;41295;48.518;9.206;2022-12-29T07:58:47;96693.94;;;11.11;58.23
32251;BME280;41295;48.518;9.206;2022-12-29T08:00:53;96694.69;;;11.13;57.83
32251;BME280;41295;48.518;9.206;2022-12-29T08:02:55;96695.09;;;11.05;58.23
32251;BME280;41295;48.518;9.206;2022-12-29T08:04:58;96705.59;;;11.04;58.51
32251;BME280;41295;48.518;9.206;2022-12-29T08:07:00;96692.88;;;11.15;57.70
32251;BME280;41295;48.518;9.206;2022-12-29T08:09:03;96684.66;;;11.05;57.90
32251;BME280;41295;48.518;9.206;2022-12-29T08:11:16;96692.94;;;11.14;58.23
32251;BME280;41295;48.518;9.206;2022-12-29T08:13:19;96684.22;;;11.15;57.39
32251;BME280;41295;48.518;9.206;2022-12-29T08:15:23;96692.69;;;11.18;56.83
32251;BME280;41295;48.518;9.206;2022-12-29T08:17:32;96703.38;;;11.31;56.77
32251;BME280;41295;48.518;9.206;2022-12-29T08:19:35;96698.16;;;11.31;56.62
32251;BME280;41295;48.518;9.206;2022-12-29T08:21:38;96700.47;;;11.38;56.13
32251;BME280;41295;48.518;9.206;2022-12-29T08:23:40;96707.69;;;11.50;55.40
32251;BME280;41295;48.518;9.206;2022-12-29T08:25:43;96704.41;;;11.47;55.84
32251;BME280;41295;48.518;9.206;2022-12-29T08:27:46;96711.28;;;11.65;54.71
32251;BME280;41295;48.518;9.206;2022-12-29T08:29:48;96715.81;;;11.62;55.22
32251;BME280;41295;48.518;9.206;2022-12-29T08:31:52;96709.38;;;11.51;55.56
32251;BME280;41295;48.518;9.206;2022-12-29T08:33:55;96716.75;;;11.61;55.57
32251;BME280;41295;48.518;9.206;2022-12-29T08:36:00;96713.97;;;11.64;55.10
32251;BME280;41295;48.518;9.206;2022-12-29T08:38:03;96723.34;;;11.68;55.07
32251;BME280;41295;48.518;9.206;2022-12-29T08:40:07;96711.59;;;11.77;54.40
32251;BME280;41295;48.518;9.206;2022-12-29T08:42:10;96722.72;;;11.81;54.42
32251;BME280;41295;48.518;9.206;2022-12-29T08:44:13;96723.78;;;11.76;54.60
32251;BME280;41295;48.518;9.206;2022-12-29T08:46:16;96720.88;;;11.65;55.11
32251;BME280;41295;48.518;9.206;2022-12-29T08:48:20;96728.03;;;11.79;54.54
32251;BME280;41295;48.518;9.206;2022-12-29T08:50:23;96714.13;;;11.78;54.35
32251;BME280;41295;48.518;9.206;2022-12-29T08:52:26;96722.22;;;11.90;54.05
32251;BME280;41295;48.518;9.206;2022-12-29T08:54:28;96723.50;;;11.83;54.38
32251;BME280;41295;48.518;9.206;2022-12-29T08:56:31;96724.84;;;11.90;54.13
32251;BME280;41295;48.518;9.206;2022-12-29T08:58:34;96730.75;;;11.94;54.11
32251;BME280;41295;48.518;9.206;2022-12-29T09:00:37;96731.25;;;11.84;54.31
32251;BME280;41295;48.518;9.206;2022-12-29T09:02:39;96729.50;;;12.01;54.09
32251;BME280;41295;48.518;9.206;2022-12-29T09:04:43;96741.28;;;11.92;54.51
32251;BME280;41295;48.518;9.206;2022-12-29T09:06:46;96731.38;;;11.81;54.44
32251;BME280;41295;48.518;9.206;2022-12-29T09:08:49;96739.53;;;11.93;54.63
32251;BME280;41295;48.518;9.206;2022-12-29T09:10:51;96735.78;;;11.81;55.06
32251;BME280;41295;48.518;9.206;2022-12-29T09:12:54;96739.78;;;11.88;54.88
32251;BME280;41295;48.518;9.206;2022-12-29T09:14:57;96738.75;;;11.90;55.26
32251;BME280;41295;48.518;9.206;2022-12-29T09:16:59;96756.66;;;11.98;55.22
32251;BME280;41295;48.518;9.206;2022-12-29T09:19:19;96751.72;;;12.10;54.75
32251;BME280;41295;48.518;9.206;2022-12-29T09:21:23;96761.41;;;12.08;55.34
32251;BME280;41295;48.518;9.206;2022-12-29T09:23:27;96753.78;;;12.03;55.54
32251;BME280;41295;48.518;9.206;2022-12-29T09:25:29;96751.72;;;12.10;55.72
32251;BME280;41295;48.518;9.206;2022-12-29T09:27:32;96760.84;;;12.01;56.35
32251;BME280;41295;48.518;9.206;2022-12-29T09:29:35;96751.44;;;11.98;56.14
32251;BME280;41295;48.518;9.206;2022-12-29T09:31:37;96762.78;;;12.15;56.45
32251;BME280;41295;48.518;9.206;2022-12-29T09:33:40;96767.78;;;12.02;56.90
32251;BME280;41295;48.518;9.206;2022-12-29T09:35:43;96769.13;;;12.11;56.36
32251;BME280;41295;48.518;9.206;2022-12-29T09:37:47;96772.34;;;11.98;56.82
32251;BME280;41295;48.518;9.206;2022-12-29T09:39:51;96774.09;;;11.98;56.76
32251;BME280;41295;48.518;9.206;2022-12-29T09:42:01;96759.19;;;12.00;57.06
32251;BME280;41295;48.518;9.206;2022-12-29T09:44:13;96773.19;;;11.99;56.96
32251;BME280;41295;48.518;9.206;2022-12-29T09:46:24;96771.09;;;12.06;56.76
32251;BME280;41295;48.518;9.206;2022-12-29T09:48:30;96768.69;;;12.01;57.25
32251;BME280;41295;48.518;9.206;2022-12-29T09:50:37;96766.00;;;12.02;56.99
32251;BME280;41295;48.518;9.206;2022-12-29T09:52:45;96763.34;;;12.04;56.97
32251;BME280;41295;48.518;9.206;2022-12-29T09:54:53;96766.63;;;12.08;56.93
32251;BME280;41295;48.518;9.206;2022-12-29T09:57:13;96754.34;;;11.92;57.46
32251;BME280;41295;48.518;9.206;2022-12-29T09:59:20;96756.41;;;12.03;57.36
32251;BME280;41295;48.518;9.206;2022-12-29T10:01:30;96749.03;;;11.94;57.84
32251;BME280;41295;48.518;9.206;2022-12-29T10:03:42;96743.06;;;11.91;57.51
32251;BME280;41295;48.518;9.206;2022-12-29T10:05:50;96754.03;;;11.98;57.80
32251;BME280;41295;48.518;9.206;2022-12-29T10:08:10;96751.34;;;12.00;57.53
32251;BME280;41295;48.518;9.206;2022-12-29T10:10:30;96751.88;;;12.07;57.17
32251;BME280;41295;48.518;9.206;2022-12-29T10:12:49;96753.78;;;12.03;57.06
32251;BME280;41295;48.518;9.206;2022-12-29T10:15:01;96757.44;;;12.00;57.55
32251;BME280;41295;48.518;9.206;2022-12-29T10:17:14;96751.13;;;11.87;57.98
32251;BME280;41295;48.518;9.206;2022-12-29T10:19:28;96758.25;;;12.01;57.64
32251;BME280;41295;48.518;9.206;2022-12-29T10:21:47;96752.66;;;11.91;57.59
32251;BME280;41295;48.518;9.206;2022-12-29T10:23:55;96746.75;;;11.87;57.82
32251;BME280;41295;48.518;9.206;2022-12-29T10:26:01;96739.47;;;11.76;58.07
32251;BME280;41295;48.518;9.206;2022-12-29T10:28:09;96743.19;;;11.88;58.20
32251;BME280;41295;48.518;9.206;2022-12-29T10:30:16;96749.25;;;12.07;57.62
32251;BME280;41295;48.518;9.206;2022-12-29T10:32:26;96751.91;;;11.89;58.08
32251;BME280;41295;48.518;9.206;2022-12-29T10:34:31;96759.56;;;11.92;58.25
32251;BME280;41295;48.518;9.206;2022-12-29T10:36:39;96754.03;;;11.98;57.98
32251;BME280;41295;48.518;9.206;2022-12-29T10:38:47;96753.88;;;12.01;58.17
32251;BME280;41295;48.518;9.206;2022-12-29T10:40:58;96757.63;;;11.96;58.56
32251;BME280;41295;48.518;9.206;2022-12-29T10:43:15;96759.44;;;12.13;58.07
32251;BME280;41295;48.518;9.206;2022-12-29T10:45:23;96762.78;;;11.97;58.45
32251;BME280;41295;48.518;9.206;2022-12-29T10:47:29;96762.66;;;12.00;58.82
32251;BME280;41295;48.518;9.206;2022-12-29T10:49:38;96777.22;;;12.05;58.71
32251;BME280;41295;48.518;9.206;2022-12-29T10:51:44;96771.19;;;12.04;58.81
32251;BME280;41295;48.518;9.206;2022-12-29T10:53:51;96755.97;;;12.12;58.80
32251;BME280;41295;48.518;9.206;2022-12-29T10:55:55;96756.56;;;12.00;59.31
32251;BME280;41295;48.518;9.206;2022-12-29T10:58:01;96752.66;;;11.91;59.79
32251;BME280;41295;48.518;9.206;2022-12-29T11:00:12;96760.63;;;12.06;59.31
32251;BME280;41295;48.518;9.206;2022-12-29T11:02:40;96754.25;;;12.11;59.15
32251;BME280;41295;48.518;9.206;2022-12-29T11:04:51;96754.81;;;12.00;59.67
32251;BME280;41295;48.518;9.206;2022-12-29T11:06:56;96766.78;;;12.05;59.44
32251;BME280;41295;48.518;9.206;2022-12-29T11:09:02;96763.56;;;11.99;59.92
32251;BME280;41295;48.518;9.206;2022-12-29T11:11:22;96763.56;;;11.99;59.91
32251;BME280;41295;48.518;9.206;2022-12-29T11:13:27;96764.56;;;11.97;60.24